sensor_id;sensor_type;location;lat;lon;timestamp;pressure;altitude;pressure_sealevel;temperature;humidity
75418;BME280;63997;52.112;5.420;2023-08-24T00:01:01;101958.28;;;16.13;85.51
75418;BME280;63997;52.112;5.420;2023-08-24T00:03:27;101953.69;;;16.13;85.46
75418;BME280;63997;52.112;5.420;2023-08-24T00:05:54;101956.59;;;16.08;84.97
75418;BME280;63997;52.112;5.420;2023-08-24T00:08:21;101954.09;;;16.03;85.61
75418;BME280;63997;52.112;5.420;2023-08-24T00:10:48;101949.19;;;16.05;85.60
75418;BME280;63997;52.112;5.420;2023-08-24T00:13:15;101945.84;;;16.08;85.18
75418;BME280;63997;52.112;5.420;2023-08-24T00:15:42;101942.38;;;16.08;84.94
75418;BME280;63997;52.112;5.420;2023-08-24T00:18:09;101937.78;;;16.08;85.39
75418;BME280;63997;52.112;5.420;2023-08-24T00:20:35;101940.03;;;16.06;85.52
75418;BME280;63997;52.112;5.420;2023-08-24T00:23:03;101949.84;;;16.02;85.72
75418;BME280;63997;52.112;5.420;2023-08-24T00:25:30;101952.09;;;16.00;86.35
75418;BME280;63997;52.112;5.420;2023-08-24T00:27:57;101942.66;;;15.94;86.24
75418;BME280;63997;52.112;5.420;2023-08-24T00:30:23;101942.19;;;15.92;86.36
75418;BME280;63997;52.112;5.420;2023-08-24T00:32:49;101953.44;;;15.85;85.54
75418;BME280;63997;52.112;5.420;2023-08-24T00:35:16;101950.50;;;15.78;85.57
75418;BME280;63997;52.112;5.420;2023-08-24T00:37:43;101938.06;;;15.74;85.63
75418;BME280;63997;52.112;5.420;2023-08-24T00:40:09;101921.97;;;15.74;86.08
75418;BME280;63997;52.112;5.420;2023-08-24T00:42:40;101912.81;;;15.75;86.46
75418;BME280;63997;52.112;5.420;2023-08-24T00:45:08;101917.53;;;15.78;86.97
75418;BME280;63997;52.112;5.420;2023-08-24T00:47:40;101911.41;;;15.77;87.11
75418;BME280;63997;52.112;5.420;2023-08-24T00:50:08;101909.03;;;15.76;87.35
75418;BME280;63997;52.112;5.420;2023-08-24T00:52:38;101905.34;;;15.80;87.38
75418;BME280;63997;52.112;5.420;2023-08-24T00:55:06;101908.72;;;15.77;87.21
75418;BME280;63997;52.112;5.420;2023-08-24T00:57:33;101908.22;;;15.75;87.93
75418;BME280;63997;52.112;5.420;2023-08-24T01:00:03;101905.88;;;15.74;88.19
75418;BME280;63997;52.112;5.420;2023-08-24T01:02:32;101902.09;;;15.75;87.89
75418;BME280;63997;52.112;5.420;2023-08-24T01:04:59;101905.22;;;15.77;88.03
75418;BME280;63997;52.112;5.420;2023-08-24T01:07:26;101923.03;;;15.81;87.84
75418;BME280;63997;52.112;5.420;2023-08-24T01:09:52;101914.66;;;15.83;87.69
75418;BME280;63997;52.112;5.420;2023-08-24T01:12:52;101921.31;;;15.77;87.45
75418;BME280;63997;52.112;5.420;2023-08-24T01:15:29;101923.75;;;15.70;86.92
75418;BME280;63997;52.112;5.420;2023-08-24T01:18:02;101927.72;;;15.64;87.68
75418;BME280;63997;52.112;5.420;2023-08-24T01:20:32;101924.25;;;15.63;87.69
75418;BME280;63997;52.112;5.420;2023-08-24T01:23:18;101922.38;;;15.64;87.86
75418;BME280;63997;52.112;5.420;2023-08-24T01:26:09;101911.78;;;15.67;87.98
75418;BME280;63997;52.112;5.420;2023-08-24T01:28:36;101910.00;;;15.71;87.67
75418;BME280;63997;52.112;5.420;2023-08-24T01:31:04;101899.25;;;15.71;87.72
75418;BME280;63997;52.112;5.420;2023-08-24T01:33:31;101901.16;;;15.71;87.65
75418;BME280;63997;52.112;5.420;2023-08-24T01:35:58;101904.19;;;15.69;88.02
75418;BME280;63997;52.112;5.420;2023-08-24T01:38:24;101908.75;;;15.69;88.16
75418;BME280;63997;52.112;5.420;2023-08-24T01:41:24;101912.38;;;15.73;88.66
75418;BME280;63997;52.112;5.420;2023-08-24T01:43:53;101911.84;;;15.79;88.62
75418;BME280;63997;52.112;5.420;2023-08-24T01:46:22;101913.84;;;15.82;88.59
75418;BME280;63997;52.112;5.420;2023-08-24T01:48:52;101926.97;;;15.84;88.30
75418;BME280;63997;52.112;5.420;2023-08-24T01:51:19;101929.31;;;15.85;88.22
75418;BME280;63997;52.112;5.420;2023-08-24T01:53:46;101931.66;;;15.87;88.26
75418;BME280;63997;52.112;5.420;2023-08-24T01:56:15;101930.44;;;15.84;88.39
75418;BME280;63997;52.112;5.420;2023-08-24T01:58:43;101914.66;;;15.83;88.43
75418;BME280;63997;52.112;5.420;2023-08-24T02:01:12;101907.69;;;15.82;88.73
75418;BME280;63997;52.112;5.420;2023-08-24T02:03:40;101902.34;;;15.82;89.26
75418;BME280;63997;52.112;5.420;2023-08-24T02:06:08;101890.97;;;15.85;89.39
75418;BME280;63997;52.112;5.420;2023-08-24T02:08:34;101895.66;;;15.88;89.32
75418;BME280;63997;52.112;5.420;2023-08-24T02:11:01;101889.66;;;15.91;89.24
75418;BME280;63997;52.112;5.420;2023-08-24T02:13:27;101890.56;;;15.95;89.48
75418;BME280;63997;52.112;5.420;2023-08-24T02:16:05;101886.91;;;16.00;89.79
75418;BME280;63997;52.112;5.420;2023-08-24T02:18:32;101893.50;;;16.02;89.36
75418;BME280;63997;52.112;5.420;2023-08-24T02:21:00;101882.41;;;16.04;89.99
75418;BME280;63997;52.112;5.420;2023-08-24T02:23:32;101885.56;;;16.06;89.97
75418;BME280;63997;52.112;5.420;2023-08-24T02:25:59;101882.75;;;16.02;89.77
75418;BME280;63997;52.112;5.420;2023-08-24T02:28:27;101889.69;;;16.03;89.97
75418;BME280;63997;52.112;5.420;2023-08-24T02:30:53;101880.41;;;16.01;89.96
75418;BME280;63997;52.112;5.420;2023-08-24T02:33:20;101875.03;;;16.01;90.39
75418;BME280;63997;52.112;5.420;2023-08-24T02:35:49;101857.03;;;16.01;90.47
75418;BME280;63997;52.112;5.420;2023-08-24T02:38:16;101847.44;;;16.00;90.67
75418;BME280;63997;52.112;5.420;2023-08-24T02:40:42;101837.78;;;15.99;91.15
75418;BME280;63997;52.112;5.420;2023-08-24T02:43:09;101822.50;;;16.00;91.37
75418;BME280;63997;52.112;5.420;2023-08-24T02:45:37;101803.38;;;16.01;91.98
75418;BME280;63997;52.112;5.420;2023-08-24T02:48:05;101800.81;;;16.05;92.39
75418;BME280;63997;52.112;5.420;2023-08-24T02:50:32;101785.28;;;16.10;91.83
75418;BME280;63997;52.112;5.420;2023-08-24T02:52:58;101789.34;;;16.17;92.18
75418;BME280;63997;52.112;5.420;2023-08-24T02:55:27;101791.78;;;16.22;91.90
75418;BME280;63997;52.112;5.420;2023-08-24T02:57:54;101791.13;;;16.25;91.64
75418;BME280;63997;52.112;5.420;2023-08-24T03:00:20;101791.91;;;16.25;91.53
75418;BME280;63997;52.112;5.420;2023-08-24T03:02:47;101796.03;;;16.23;91.58
75418;BME280;63997;52.112;5.420;2023-08-24T03:05:13;101796.03;;;16.23;91.71
75418;BME280;63997;52.112;5.420;2023-08-24T03:07:40;101805.75;;;16.27;91.72
75418;BME280;63997;52.112;5.420;2023-08-24T03:10:06;101804.66;;;16.28;91.61
75418;BME280;63997;52.112;5.420;2023-08-24T03:12:33;101791.56;;;16.27;91.49
75418;BME280;63997;52.112;5.420;2023-08-24T03:14:59;101796.63;;;16.28;92.37
75418;BME280;63997;52.112;5.420;2023-08-24T03:17:26;101797.84;;;16.31;92.09
75418;BME280;63997;52.112;5.420;2023-08-24T03:19:52;101795.94;;;16.31;91.83
75418;BME280;63997;52.112;5.420;2023-08-24T03:22:18;101791.34;;;16.32;91.59
75418;BME280;63997;52.112;5.420;2023-08-24T03:24:45;101790.91;;;16.30;91.71
75418;BME280;63997;52.112;5.420;2023-08-24T03:27:11;101785.97;;;16.32;91.82
75418;BME280;63997;52.112;5.420;2023-08-24T03:29:41;101785.97;;;16.32;91.72
75418;BME280;63997;52.112;5.420;2023-08-24T03:32:07;101776.34;;;16.31;91.53
75418;BME280;63997;52.112;5.420;2023-08-24T03:34:33;101775.22;;;16.32;91.59
75418;BME280;63997;52.112;5.420;2023-08-24T03:37:00;101768.31;;;16.31;91.55
75418;BME280;63997;52.112;5.420;2023-08-24T03:39:26;101764.41;;;16.28;91.43
75418;BME280;63997;52.112;5.420;2023-08-24T03:41:53;101770.44;;;16.25;91.52
75418;BME280;63997;52.112;5.420;2023-08-24T03:44:19;101760.03;;;16.24;91.55
75418;BME280;63997;52.112;5.420;2023-08-24T03:46:46;101774.56;;;16.23;91.21
75418;BME280;63997;52.112;5.420;2023-08-24T03:49:13;101763.94;;;16.14;91.31
75418;BME280;63997;52.112;5.420;2023-08-24T03:51:40;101762.25;;;16.09;91.25
75418;BME280;63997;52.112;5.420;2023-08-24T03:54:06;101760.69;;;16.08;91.55
75418;BME280;63997;52.112;5.420;2023-08-24T03:56:33;101767.50;;;16.06;91.54
75418;BME280;63997;52.112;5.420;2023-08-24T03:58:59;101759.78;;;16.04;91.91
75418;BME280;63997;52.112;5.420;2023-08-24T04:01:25;101762.16;;;16.06;91.57
75418;BME280;63997;52.112;5.420;2023-08-24T04:03:52;101755.19;;;16.05;91.48
75418;BME280;63997;52.112;5.420;2023-08-24T04:06:19;101752.06;;;16.03;91.67
75418;BME280;63997;52.112;5.420;2023-08-24T04:08:46;101751.16;;;15.99;91.58
75418;BME280;63997;52.112;5.420;2023-08-24T04:11:12;101751.16;;;15.99;91.31
75418;BME280;63997;52.112;5.420;2023-08-24T04:13:38;101750.38;;;15.98;91.21
75418;BME280;63997;52.112;5.420;2023-08-24T04:16:05;101761.09;;;15.98;91.10
75418;BME280;63997;52.112;5.420;2023-08-24T04:18:31;101757.19;;;15.96;90.96
75418;BME280;63997;52.112;5.420;2023-08-24T04:20:58;101753.75;;;15.95;90.81
75418;BME280;63997;52.112;5.420;2023-08-24T04:23:25;101758.31;;;15.95;91.01
75418;BME280;63997;52.112;5.420;2023-08-24T04:25:54;101754.84;;;15.94;90.73
75418;BME280;63997;52.112;5.420;2023-08-24T04:28:25;101757.84;;;15.93;91.03
75418;BME280;63997;52.112;5.420;2023-08-24T04:30:56;101763.22;;;15.93;91.18
75418;BME280;63997;52.112;5.420;2023-08-24T04:33:26;101761.78;;;15.95;91.26
75418;BME280;63997;52.112;5.420;2023-08-24T04:35:52;101765.13;;;15.92;91.49
75418;BME280;63997;52.112;5.420;2023-08-24T04:38:18;101768.47;;;15.89;91.26
75418;BME280;63997;52.112;5.420;2023-08-24T04:43:18;101770.47;;;15.92;91.60
75418;BME280;63997;52.112;5.420;2023-08-24T04:45:49;101775.19;;;15.95;91.43
75418;BME280;63997;52.112;5.420;2023-08-24T04:48:16;101774.06;;;15.96;91.94
75418;BME280;63997;52.112;5.420;2023-08-24T04:50:43;101764.91;;;15.97;91.81
75418;BME280;63997;52.112;5.420;2023-08-24T04:53:14;101762.66;;;15.99;92.01
75418;BME280;63997;52.112;5.420;2023-08-24T04:55:41;101762.00;;;16.02;92.35
75418;BME280;63997;52.112;5.420;2023-08-24T04:58:09;101761.34;;;16.05;92.17
75418;BME280;63997;52.112;5.420;2023-08-24T05:00:37;101761.81;;;16.07;92.08
75418;BME280;63997;52.112;5.420;2023-08-24T05:03:07;101759.91;;;16.08;91.63
75418;BME280;63997;52.112;5.420;2023-08-24T05:05:35;101753.88;;;16.11;91.86
75418;BME280;63997;52.112;5.420;2023-08-24T05:08:03;101757.44;;;16.15;91.81
75418;BME280;63997;52.112;5.420;2023-08-24T05:10:33;101760.13;;;16.15;92.26
75418;BME280;63997;52.112;5.420;2023-08-24T05:13:00;101762.03;;;16.14;91.95
75418;BME280;63997;52.112;5.420;2023-08-24T05:15:26;101761.59;;;16.12;91.50
75418;BME280;63997;52.112;5.420;2023-08-24T05:17:53;101758.44;;;16.10;91.68
75418;BME280;63997;52.112;5.420;2023-08-24T05:20:24;101758.00;;;16.08;91.70
75418;BME280;63997;52.112;5.420;2023-08-24T05:22:50;101751.41;;;16.06;91.53
75418;BME280;63997;52.112;5.420;2023-08-24T05:25:17;101746.03;;;16.06;91.50
75418;BME280;63997;52.112;5.420;2023-08-24T05:27:44;101741.25;;;16.11;92.06
75418;BME280;63997;52.112;5.420;2023-08-24T05:30:11;101735.75;;;16.20;92.25
75418;BME280;63997;52.112;5.420;2023-08-24T05:32:37;101727.13;;;16.27;92.44
75418;BME280;63997;52.112;5.420;2023-08-24T05:35:05;101724.22;;;16.32;92.35
75418;BME280;63997;52.112;5.420;2023-08-24T05:37:33;101720.19;;;16.38;92.41
75418;BME280;63997;52.112;5.420;2023-08-24T05:40:02;101719.19;;;16.43;92.27
75418;BME280;63997;52.112;5.420;2023-08-24T05:42:30;101716.63;;;16.46;92.50
75418;BME280;63997;52.112;5.420;2023-08-24T05:44:57;101720.22;;;16.50;92.53
75418;BME280;63997;52.112;5.420;2023-08-24T05:47:23;101719.97;;;16.55;92.64
75418;BME280;63997;52.112;5.420;2023-08-24T05:49:50;101712.00;;;16.59;92.55
75418;BME280;63997;52.112;5.420;2023-08-24T05:52:16;101714.13;;;16.65;92.32
75418;BME280;63997;52.112;5.420;2023-08-24T05:54:43;101702.06;;;16.72;92.56
75418;BME280;63997;52.112;5.420;2023-08-24T05:57:09;101706.06;;;16.78;92.55
75418;BME280;63997;52.112;5.420;2023-08-24T05:59:37;101693.53;;;16.82;92.20
75418;BME280;63997;52.112;5.420;2023-08-24T06:02:03;101696.41;;;16.89;92.20
75418;BME280;63997;52.112;5.420;2023-08-24T06:04:30;101693.16;;;16.96;92.16
75418;BME280;63997;52.112;5.420;2023-08-24T06:06:57;101689.88;;;17.02;92.08
75418;BME280;63997;52.112;5.420;2023-08-24T06:09:24;101687.81;;;17.11;91.85
75418;BME280;63997;52.112;5.420;2023-08-24T06:11:50;101686.91;;;17.19;91.95
75418;BME280;63997;52.112;5.420;2023-08-24T06:14:16;101688.22;;;17.26;92.12
75418;BME280;63997;52.112;5.420;2023-08-24T06:16:43;101698.03;;;17.34;92.20
75418;BME280;63997;52.112;5.420;2023-08-24T06:19:10;101681.59;;;17.51;92.11
75418;BME280;63997;52.112;5.420;2023-08-24T06:21:36;101672.06;;;17.69;91.89
75418;BME280;63997;52.112;5.420;2023-08-24T06:24:03;101674.59;;;17.78;91.89
75418;BME280;63997;52.112;5.420;2023-08-24T06:26:30;101672.88;;;17.86;91.18
75418;BME280;63997;52.112;5.420;2023-08-24T06:28:56;101663.16;;;17.97;90.37
75418;BME280;63997;52.112;5.420;2023-08-24T06:31:22;101659.94;;;18.07;90.21
75418;BME280;63997;52.112;5.420;2023-08-24T06:33:49;101649.38;;;18.18;90.52
75418;BME280;63997;52.112;5.420;2023-08-24T06:36:16;101651.63;;;18.32;90.01
75418;BME280;63997;52.112;5.420;2023-08-24T06:38:42;101656.59;;;18.49;89.22
75418;BME280;63997;52.112;5.420;2023-08-24T06:41:09;101662.13;;;18.56;88.68
75418;BME280;63997;52.112;5.420;2023-08-24T06:43:38;101653.84;;;18.65;88.42
75418;BME280;63997;52.112;5.420;2023-08-24T06:46:07;101646.53;;;18.81;88.38
75418;BME280;63997;52.112;5.420;2023-08-24T06:48:35;101650.97;;;18.93;87.51
75418;BME280;63997;52.112;5.420;2023-08-24T06:51:02;101640.72;;;19.02;87.74
75418;BME280;63997;52.112;5.420;2023-08-24T06:53:28;101636.56;;;19.70;87.31
75418;BME280;63997;52.112;5.420;2023-08-24T06:55:55;101618.47;;;21.76;81.50
75418;BME280;63997;52.112;5.420;2023-08-24T06:58:22;101617.22;;;23.69;72.16
75418;BME280;63997;52.112;5.420;2023-08-24T07:00:49;101610.19;;;23.82;69.92
75418;BME280;63997;52.112;5.420;2023-08-24T07:03:18;101617.81;;;24.41;68.25
75418;BME280;63997;52.112;5.420;2023-08-24T07:05:49;101628.03;;;25.51;64.27
75418;BME280;63997;52.112;5.420;2023-08-24T07:08:15;101626.25;;;26.13;60.96
75418;BME280;63997;52.112;5.420;2023-08-24T07:10:42;101631.63;;;27.12;57.71
75418;BME280;63997;52.112;5.420;2023-08-24T07:13:09;101636.00;;;26.79;58.82
75418;BME280;63997;52.112;5.420;2023-08-24T07:15:36;101623.63;;;26.71;58.95
75418;BME280;63997;52.112;5.420;2023-08-24T07:18:02;101625.69;;;26.90;58.49
75418;BME280;63997;52.112;5.420;2023-08-24T07:20:29;101618.00;;;26.81;58.45
75418;BME280;63997;52.112;5.420;2023-08-24T07:22:56;101615.78;;;27.27;56.60
75418;BME280;63997;52.112;5.420;2023-08-24T07:25:23;101619.03;;;27.88;55.85
75418;BME280;63997;52.112;5.420;2023-08-24T07:27:50;101628.59;;;28.76;52.76
75418;BME280;63997;52.112;5.420;2023-08-24T07:30:17;101626.16;;;27.82;54.84
75418;BME280;63997;52.112;5.420;2023-08-24T07:33:00;101635.56;;;27.11;55.79
75418;BME280;63997;52.112;5.420;2023-08-24T07:35:30;101628.94;;;28.02;53.85
75418;BME280;63997;52.112;5.420;2023-08-24T07:38:08;101622.72;;;29.10;52.16
75418;BME280;63997;52.112;5.420;2023-08-24T07:40:39;101630.75;;;28.09;53.61
75418;BME280;63997;52.112;5.420;2023-08-24T07:43:08;101624.53;;;27.41;54.89
75418;BME280;63997;52.112;5.420;2023-08-24T07:45:36;101624.44;;;26.68;57.17
75418;BME280;63997;52.112;5.420;2023-08-24T07:48:08;101621.97;;;26.50;57.43
75418;BME280;63997;52.112;5.420;2023-08-24T07:50:34;101631.31;;;26.79;57.50
75418;BME280;63997;52.112;5.420;2023-08-24T07:53:01;101628.31;;;26.70;56.90
75418;BME280;63997;52.112;5.420;2023-08-24T07:55:27;101623.88;;;27.34;56.18
75418;BME280;63997;52.112;5.420;2023-08-24T07:57:53;101630.03;;;27.38;55.96
75418;BME280;63997;52.112;5.420;2023-08-24T08:00:20;101631.03;;;26.97;57.86
75418;BME280;63997;52.112;5.420;2023-08-24T08:02:49;101631.16;;;26.90;57.10
75418;BME280;63997;52.112;5.420;2023-08-24T08:05:17;101630.81;;;26.57;57.78
75418;BME280;63997;52.112;5.420;2023-08-24T08:07:44;101633.59;;;26.20;59.31
75418;BME280;63997;52.112;5.420;2023-08-24T08:10:10;101634.50;;;26.09;60.55
75418;BME280;63997;52.112;5.420;2023-08-24T08:12:37;101632.78;;;25.89;60.48
75418;BME280;63997;52.112;5.420;2023-08-24T08:15:03;101622.31;;;25.83;60.14
75418;BME280;63997;52.112;5.420;2023-08-24T08:17:30;101620.78;;;25.79;60.98
75418;BME280;63997;52.112;5.420;2023-08-24T08:19:58;101615.38;;;25.72;61.43
75418;BME280;63997;52.112;5.420;2023-08-24T08:22:27;101607.59;;;25.74;61.95
75418;BME280;63997;52.112;5.420;2023-08-24T08:24:53;101603.31;;;25.69;62.59
75418;BME280;63997;52.112;5.420;2023-08-24T08:27:20;101599.91;;;25.62;60.68
75418;BME280;63997;52.112;5.420;2023-08-24T08:29:47;101603.84;;;25.57;62.06
75418;BME280;63997;52.112;5.420;2023-08-24T08:32:14;101606.63;;;25.50;61.85
75418;BME280;63997;52.112;5.420;2023-08-24T08:34:41;101601.59;;;25.48;63.81
75418;BME280;63997;52.112;5.420;2023-08-24T08:37:07;101591.59;;;25.35;62.46
75418;BME280;63997;52.112;5.420;2023-08-24T08:39:33;101585.44;;;25.27;63.35
75418;BME280;63997;52.112;5.420;2023-08-24T08:42:01;101584.28;;;25.24;63.14
75418;BME280;63997;52.112;5.420;2023-08-24T08:44:32;101578.56;;;25.12;62.64
75418;BME280;63997;52.112;5.420;2023-08-24T08:46:58;101566.16;;;25.03;62.63
75418;BME280;63997;52.112;5.420;2023-08-24T08:49:25;101558.41;;;24.98;63.42
75418;BME280;63997;52.112;5.420;2023-08-24T08:51:52;101562.25;;;25.04;63.67
75418;BME280;63997;52.112;5.420;2023-08-24T08:54:19;101563.03;;;25.05;61.81
75418;BME280;63997;52.112;5.420;2023-08-24T08:56:46;101552.16;;;25.09;63.47
75418;BME280;63997;52.112;5.420;2023-08-24T08:59:15;101547.47;;;25.09;63.12
75418;BME280;63997;52.112;5.420;2023-08-24T09:01:42;101540.88;;;25.06;62.52
75418;BME280;63997;52.112;5.420;2023-08-24T09:04:11;101535.03;;;25.04;62.62
75418;BME280;63997;52.112;5.420;2023-08-24T09:06:38;101520.25;;;25.09;62.91
75418;BME280;63997;52.112;5.420;2023-08-24T09:09:04;101513.97;;;25.16;60.61
75418;BME280;63997;52.112;5.420;2023-08-24T09:11:31;101518.22;;;25.17;60.16
75418;BME280;63997;52.112;5.420;2023-08-24T09:13:59;101523.69;;;25.17;61.18
75418;BME280;63997;52.112;5.420;2023-08-24T09:16:29;101526.75;;;25.22;62.07
75418;BME280;63997;52.112;5.420;2023-08-24T09:18:57;101519.56;;;25.39;62.27
75418;BME280;63997;52.112;5.420;2023-08-24T09:21:25;101520.53;;;25.59;62.36
75418;BME280;63997;52.112;5.420;2023-08-24T09:23:55;101518.81;;;25.76;60.19
75418;BME280;63997;52.112;5.420;2023-08-24T09:26:37;101511.34;;;25.84;60.88
75418;BME280;63997;52.112;5.420;2023-08-24T09:29:15;101508.81;;;26.00;61.29
75418;BME280;63997;52.112;5.420;2023-08-24T09:31:43;101500.41;;;26.15;59.83
75418;BME280;63997;52.112;5.420;2023-08-24T09:34:12;101500.84;;;26.13;60.68
75418;BME280;63997;52.112;5.420;2023-08-24T09:36:39;101498.97;;;26.06;60.98
75418;BME280;63997;52.112;5.420;2023-08-24T09:39:06;101494.28;;;26.07;61.83
75418;BME280;63997;52.112;5.420;2023-08-24T09:41:38;101488.88;;;26.03;60.99
75418;BME280;63997;52.112;5.420;2023-08-24T09:44:06;101483.34;;;26.10;61.47
75418;BME280;63997;52.112;5.420;2023-08-24T09:46:38;101482.47;;;26.17;62.43
75418;BME280;63997;52.112;5.420;2023-08-24T09:49:09;101492.72;;;26.09;59.64
75418;BME280;63997;52.112;5.420;2023-08-24T09:51:36;101485.66;;;26.12;61.36
75418;BME280;63997;52.112;5.420;2023-08-24T09:54:10;101491.31;;;26.25;62.88
75418;BME280;63997;52.112;5.420;2023-08-24T09:56:38;101487.78;;;26.28;60.19
75418;BME280;63997;52.112;5.420;2023-08-24T09:59:13;101497.94;;;26.27;60.87
75418;BME280;63997;52.112;5.420;2023-08-24T10:01:44;101498.75;;;26.24;61.83
75418;BME280;63997;52.112;5.420;2023-08-24T10:04:17;101489.50;;;26.15;61.70
75418;BME280;63997;52.112;5.420;2023-08-24T10:06:52;101491.28;;;25.98;60.72
75418;BME280;63997;52.112;5.420;2023-08-24T10:09:40;101501.63;;;25.83;60.98
75418;BME280;63997;52.112;5.420;2023-08-24T10:12:11;101506.84;;;25.67;62.23
75418;BME280;63997;52.112;5.420;2023-08-24T10:14:53;101501.94;;;25.51;62.18
75418;BME280;63997;52.112;5.420;2023-08-24T10:17:22;101503.66;;;25.38;63.12
75418;BME280;63997;52.112;5.420;2023-08-24T10:19:51;101497.13;;;25.28;64.54
75418;BME280;63997;52.112;5.420;2023-08-24T10:22:19;101485.19;;;25.15;66.23
75418;BME280;63997;52.112;5.420;2023-08-24T10:24:47;101475.94;;;25.01;65.67
75418;BME280;63997;52.112;5.420;2023-08-24T10:27:14;101485.34;;;24.93;66.52
75418;BME280;63997;52.112;5.420;2023-08-24T10:29:40;101476.88;;;24.84;70.35
75418;BME280;63997;52.112;5.420;2023-08-24T10:32:07;101482.44;;;24.70;69.58
75418;BME280;63997;52.112;5.420;2023-08-24T10:34:34;101475.56;;;24.54;69.22
75418;BME280;63997;52.112;5.420;2023-08-24T10:37:11;101476.41;;;24.44;68.93
75418;BME280;63997;52.112;5.420;2023-08-24T10:39:44;101479.56;;;24.36;70.11
75418;BME280;63997;52.112;5.420;2023-08-24T10:42:14;101472.22;;;24.25;71.58
75418;BME280;63997;52.112;5.420;2023-08-24T10:44:45;101471.47;;;24.18;71.49
75418;BME280;63997;52.112;5.420;2023-08-24T10:47:19;101475.75;;;24.15;72.66
75418;BME280;63997;52.112;5.420;2023-08-24T10:52:35;101485.41;;;24.27;73.81
75418;BME280;63997;52.112;5.420;2023-08-24T10:55:27;101480.34;;;24.29;73.25
75418;BME280;63997;52.112;5.420;2023-08-24T10:58:00;101475.28;;;24.35;74.79
75418;BME280;63997;52.112;5.420;2023-08-24T11:00:29;101469.03;;;24.41;75.65
75418;BME280;63997;52.112;5.420;2023-08-24T11:02:57;101463.97;;;24.47;74.39
75418;BME280;63997;52.112;5.420;2023-08-24T11:05:31;101463.56;;;24.48;72.00
75418;BME280;63997;52.112;5.420;2023-08-24T11:08:01;101462.38;;;24.49;73.83
75418;BME280;63997;52.112;5.420;2023-08-24T11:10:34;101460.44;;;24.46;73.93
75418;BME280;63997;52.112;5.420;2023-08-24T11:13:14;101458.53;;;24.43;74.19
75418;BME280;63997;52.112;5.420;2023-08-24T11:15:43;101462.81;;;24.41;74.68
75418;BME280;63997;52.112;5.420;2023-08-24T11:18:24;101465.56;;;24.37;75.15
75418;BME280;63997;52.112;5.420;2023-08-24T11:21:03;101455.44;;;24.34;74.53
75418;BME280;63997;52.112;5.420;2023-08-24T11:23:30;101451.59;;;24.32;74.39
75418;BME280;63997;52.112;5.420;2023-08-24T11:25:58;101448.47;;;24.29;73.98
75418;BME280;63997;52.112;5.420;2023-08-24T11:28:27;101433.34;;;24.32;74.67
75418;BME280;63997;52.112;5.420;2023-08-24T11:30:55;101432.94;;;24.34;74.08
75418;BME280;63997;52.112;5.420;2023-08-24T11:33:35;101420.53;;;24.36;74.14
75418;BME280;63997;52.112;5.420;2023-08-24T11:36:04;101411.56;;;24.39;74.62
75418;BME280;63997;52.112;5.420;2023-08-24T11:38:41;101417.75;;;24.43;74.51
75418;BME280;63997;52.112;5.420;2023-08-24T11:41:15;101404.91;;;24.47;74.02
75418;BME280;63997;52.112;5.420;2023-08-24T11:43:47;101400.59;;;24.50;73.59
75418;BME280;63997;52.112;5.420;2023-08-24T11:46:18;101390.88;;;24.52;74.03
75418;BME280;63997;52.112;5.420;2023-08-24T11:48:45;101397.03;;;24.57;74.57
75418;BME280;63997;52.112;5.420;2023-08-24T11:51:12;101389.19;;;24.66;74.31
75418;BME280;63997;52.112;5.420;2023-08-24T11:53:43;101382.91;;;24.76;74.42
75418;BME280;63997;52.112;5.420;2023-08-24T11:56:11;101376.50;;;24.93;73.58
75418;BME280;63997;52.112;5.420;2023-08-24T11:58:42;101384.94;;;25.02;72.98
75418;BME280;63997;52.112;5.420;2023-08-24T12:01:11;101379.41;;;25.13;72.67
75418;BME280;63997;52.112;5.420;2023-08-24T12:03:40;101387.78;;;25.29;72.63
75418;BME280;63997;52.112;5.420;2023-08-24T12:06:16;101383.06;;;25.37;70.27
75418;BME280;63997;52.112;5.420;2023-08-24T12:08:46;101389.13;;;25.48;71.26
75418;BME280;63997;52.112;5.420;2023-08-24T12:11:18;101388.81;;;25.73;70.72
75418;BME280;63997;52.112;5.420;2023-08-24T12:13:49;101382.88;;;26.09;69.25
75418;BME280;63997;52.112;5.420;2023-08-24T12:16:17;101375.59;;;26.26;69.02
75418;BME280;63997;52.112;5.420;2023-08-24T12:18:54;101375.38;;;26.44;68.88
75418;BME280;63997;52.112;5.420;2023-08-24T12:21:22;101374.84;;;26.49;68.26
75418;BME280;63997;52.112;5.420;2023-08-24T12:23:59;101370.34;;;26.38;66.71
75418;BME280;63997;52.112;5.420;2023-08-24T12:26:27;101357.66;;;26.28;65.31
75418;BME280;63997;52.112;5.420;2023-08-24T12:29:00;101349.81;;;26.30;66.61
75418;BME280;63997;52.112;5.420;2023-08-24T12:31:27;101352.97;;;26.29;67.40
75418;BME280;63997;52.112;5.420;2023-08-24T12:34:04;101344.38;;;26.30;66.15
75418;BME280;63997;52.112;5.420;2023-08-24T12:36:38;101340.53;;;26.28;68.84
75418;BME280;63997;52.112;5.420;2023-08-24T12:39:05;101334.31;;;26.27;67.66
75418;BME280;63997;52.112;5.420;2023-08-24T12:41:33;101329.38;;;26.19;66.52
75418;BME280;63997;52.112;5.420;2023-08-24T12:44:00;101322.78;;;26.16;68.08
75418;BME280;63997;52.112;5.420;2023-08-24T12:46:34;101307.31;;;26.09;68.10
75418;BME280;63997;52.112;5.420;2023-08-24T12:49:02;101289.06;;;26.06;68.10
75418;BME280;63997;52.112;5.420;2023-08-24T12:51:28;101287.06;;;26.10;67.10
75418;BME280;63997;52.112;5.420;2023-08-24T12:53:55;101284.66;;;26.13;68.21
75418;BME280;63997;52.112;5.420;2023-08-24T12:56:21;101280.00;;;26.13;66.04
75418;BME280;63997;52.112;5.420;2023-08-24T12:58:48;101270.50;;;26.21;67.56
75418;BME280;63997;52.112;5.420;2023-08-24T13:01:14;101261.34;;;26.31;66.89
75418;BME280;63997;52.112;5.420;2023-08-24T13:03:41;101257.25;;;26.67;66.38